Time;durP1;ratioP1;P1;durP2;ratioP2;P2;SDS_P1;SDS_P2;PMS_P1;PMS_P2;Temp;Humidity;BMP_temperature;BMP_pressure;BME280_temperature;BME280_humidity;BME280_pressure;Samples;Min_cycle;Max_cycle;Signal;HPM_P1;HPM_P2
2024/02/06 00:01:27;;;;;;;11.43;5.15;;;10.00;99.90;;;;;;5126706;27;20392;-70
2024/02/06 00:03:54;;;;;;;15.15;5.78;;;10.00;99.90;;;;;;5103180;27;20059;-71
2024/02/06 00:06:21;;;;;;;14.38;5.18;;;10.00;99.90;;;;;;5108416;27;20050;-71
2024/02/06 00:08:47;;;;;;;14.23;5.38;;;9.90;99.90;;;;;;5102129;27;20122;-72
2024/02/06 00:11:13;;;;;;;13.43;5.30;;;9.90;99.90;;;;;;5110088;27;20126;-71
2024/02/06 00:13:42;;;;;;;16.38;4.80;;;10.00;99.90;;;;;;5102351;27;20667;-71
2024/02/06 00:16:12;;;;;;;15.55;5.28;;;9.90;99.90;;;;;;5123233;27;20047;-71
2024/02/06 00:18:38;;;;;;;14.40;4.97;;;10.00;99.90;;;;;;5114190;27;20051;-72
2024/02/06 00:21:04;;;;;;;12.65;4.47;;;10.00;99.90;;;;;;5129643;27;20069;-71
2024/02/06 00:23:30;;;;;;;14.57;5.22;;;9.90;99.90;;;;;;5128113;27;20031;-72
2024/02/06 00:25:56;;;;;;;15.30;5.35;;;10.00;99.90;;;;;;5108039;27;20106;-72
2024/02/06 00:28:22;;;;;;;15.55;5.13;;;9.90;99.90;;;;;;5120455;27;20047;-71
2024/02/06 00:30:48;;;;;;;16.35;5.68;;;9.90;99.90;;;;;;5127287;27;20037;-72
2024/02/06 00:33:14;;;;;;;15.48;4.80;;;9.90;99.90;;;;;;5113215;27;20699;-71
2024/02/06 00:35:40;;;;;;;15.73;4.75;;;9.90;99.90;;;;;;5129087;27;20404;-72
2024/02/06 00:38:06;;;;;;;14.32;5.55;;;9.90;99.90;;;;;;5115493;27;20058;-71
2024/02/06 00:40:32;;;;;;;16.25;5.38;;;9.90;99.90;;;;;;5112370;27;20043;-71
2024/02/06 00:42:58;;;;;;;13.68;4.78;;;9.90;99.90;;;;;;5108478;27;20095;-71
2024/02/06 00:45:24;;;;;;;12.50;5.53;;;9.90;99.90;;;;;;5112524;27;20034;-71
2024/02/06 00:47:51;;;;;;;14.80;4.60;;;10.00;99.90;;;;;;5123343;27;20047;-71
2024/02/06 00:50:26;;;;;;;13.23;5.20;;;10.00;99.90;;;;;;5122143;27;20592;-72
2024/02/06 00:52:52;;;;;;;17.77;5.22;;;10.00;99.90;;;;;;5121778;27;20106;-71
2024/02/06 00:55:18;;;;;;;12.95;5.07;;;10.00;99.90;;;;;;5126959;27;20445;-71
2024/02/06 00:57:44;;;;;;;16.90;5.50;;;10.00;99.90;;;;;;5109962;27;20058;-71
2024/02/06 01:00:11;;;;;;;20.17;5.13;;;10.00;99.90;;;;;;5113381;27;20058;-71
2024/02/06 01:02:37;;;;;;;13.02;5.25;;;10.10;99.90;;;;;;5130471;27;20404;-71
2024/02/06 01:05:03;;;;;;;20.30;5.35;;;10.10;99.90;;;;;;5114578;27;20055;-72
2024/02/06 01:07:29;;;;;;;15.77;5.35;;;10.00;99.90;;;;;;5123400;27;20054;-72
2024/02/06 01:09:55;;;;;;;17.65;5.15;;;10.00;99.90;;;;;;5117173;27;20035;-72
2024/02/06 01:12:29;;;;;;;14.15;5.20;;;10.10;99.90;;;;;;5107477;27;20138;-72
2024/02/06 01:14:57;;;;;;;13.57;4.97;;;9.90;99.90;;;;;;5123990;27;20599;-72
2024/02/06 01:17:22;;;;;;;16.27;5.68;;;10.10;99.90;;;;;;5108478;27;20862;-72
2024/02/06 01:19:48;;;;;;;16.92;4.95;;;10.10;99.90;;;;;;5121236;27;20039;-72
2024/02/06 01:22:15;;;;;;;18.13;5.60;;;10.10;99.90;;;;;;5127064;27;20511;-72
2024/02/06 01:24:41;;;;;;;14.85;5.15;;;10.10;99.90;;;;;;5118725;27;20417;-71
2024/02/06 01:27:07;;;;;;;14.38;4.95;;;10.10;99.90;;;;;;5094902;27;20054;-72
2024/02/06 01:29:34;;;;;;;16.98;5.00;;;10.10;99.90;;;;;;5125544;27;20122;-71
2024/02/06 01:31:59;;;;;;;16.58;5.57;;;10.10;99.90;;;;;;5104782;27;20050;-71
2024/02/06 01:34:25;;;;;;;19.95;5.03;;;10.10;99.90;;;;;;5126106;27;20039;-71
2024/02/06 01:36:51;;;;;;;15.88;5.15;;;10.10;99.90;;;;;;5109040;27;20047;-72
2024/02/06 01:39:17;;;;;;;14.88;4.72;;;10.10;99.90;;;;;;5120089;27;20396;-71
2024/02/06 01:41:43;;;;;;;14.52;5.20;;;10.10;99.90;;;;;;5109228;27;20078;-71
2024/02/06 01:44:09;;;;;;;14.15;5.05;;;10.10;99.90;;;;;;5124412;27;20500;-71
2024/02/06 01:46:35;;;;;;;18.27;5.20;;;10.10;99.90;;;;;;5122071;27;20042;-71
2024/02/06 01:49:04;;;;;;;21.00;5.38;;;10.10;99.90;;;;;;5128326;27;20045;-71
2024/02/06 01:51:36;;;;;;;13.15;5.05;;;10.10;99.90;;;;;;5131231;27;20055;-71
2024/02/06 01:54:05;;;;;;;23.20;6.28;;;10.10;99.90;;;;;;5129395;27;20074;-71
2024/02/06 01:56:38;;;;;;;23.45;6.28;;;10.10;99.90;;;;;;5118661;27;20047;-71
2024/02/06 01:59:05;;;;;;;19.25;5.75;;;10.10;99.90;;;;;;5112317;27;20039;-71
2024/02/06 02:01:31;;;;;;;20.23;6.00;;;10.10;99.90;;;;;;5110179;27;20041;-71
2024/02/06 02:04:01;;;;;;;17.70;5.75;;;10.10;99.90;;;;;;5110019;27;20062;-71
2024/02/06 02:06:28;;;;;;;16.05;5.28;;;10.10;99.90;;;;;;5123721;27;20054;-71
2024/02/06 02:08:53;;;;;;;15.75;5.20;;;10.10;99.90;;;;;;5104065;27;20518;-71
2024/02/06 02:11:19;;;;;;;16.58;5.22;;;10.10;99.90;;;;;;5118221;27;20039;-71
2024/02/06 02:13:46;;;;;;;22.02;5.68;;;10.10;99.90;;;;;;5127720;27;20039;-71
2024/02/06 02:16:12;;;;;;;17.55;5.15;;;10.10;99.90;;;;;;5106864;28;20501;-72
2024/02/06 02:18:38;;;;;;;22.73;6.25;;;10.10;99.90;;;;;;5119183;27;20074;-72
2024/02/06 02:21:14;;;;;;;15.75;5.10;;;10.10;99.90;;;;;;5124299;27;20043;-71
2024/02/06 02:23:42;;;;;;;16.38;5.72;;;10.10;99.90;;;;;;5113850;27;20054;-71
2024/02/06 02:26:10;;;;;;;18.77;6.22;;;10.10;99.90;;;;;;5129111;27;20045;-72
2024/02/06 02:28:37;;;;;;;19.60;6.32;;;10.10;99.90;;;;;;5112197;27;20098;-71
2024/02/06 02:31:07;;;;;;;18.75;5.68;;;10.10;99.90;;;;;;5120794;27;20031;-71
2024/02/06 02:33:33;;;;;;;20.75;5.13;;;10.10;99.90;;;;;;5129973;27;20034;-72
2024/02/06 02:35:59;;;;;;;20.70;6.45;;;10.10;99.90;;;;;;5111124;27;20129;-72
2024/02/06 02:38:25;;;;;;;20.48;5.95;;;10.10;99.90;;;;;;5127010;27;20118;-71
2024/02/06 02:40:51;;;;;;;21.10;6.07;;;10.10;99.90;;;;;;5113888;27;20045;-71
2024/02/06 02:43:18;;;;;;;20.23;5.85;;;10.10;99.90;;;;;;5130715;27;20042;-71
2024/02/06 02:45:44;;;;;;;18.75;6.18;;;10.10;99.90;;;;;;5129520;27;20050;-71
2024/02/06 02:48:09;;;;;;;20.40;5.60;;;10.10;99.90;;;;;;5128886;27;20167;-72
2024/02/06 02:50:36;;;;;;;17.20;5.78;;;10.10;99.90;;;;;;5128133;27;20707;-71
2024/02/06 02:53:05;;;;;;;19.75;6.00;;;10.10;99.90;;;;;;5129557;27;20043;-71
2024/02/06 02:55:33;;;;;;;22.65;6.05;;;10.10;99.90;;;;;;5129317;27;20117;-71
2024/02/06 02:57:59;;;;;;;16.30;5.78;;;10.10;99.90;;;;;;5114731;27;20445;-71
2024/02/06 03:00:25;;;;;;;22.05;6.50;;;10.10;99.90;;;;;;5111960;27;20049;-71
2024/02/06 03:02:51;;;;;;;21.52;6.22;;;10.10;99.90;;;;;;5112024;27;20076;-71
2024/02/06 03:05:17;;;;;;;18.55;5.30;;;10.10;99.90;;;;;;5128027;27;20045;-71
2024/02/06 03:07:43;;;;;;;19.25;6.38;;;10.10;99.90;;;;;;5127732;27;20049;-72
2024/02/06 03:10:09;;;;;;;20.50;5.43;;;10.10;99.90;;;;;;5122242;27;20047;-71
2024/02/06 03:12:34;;;;;;;20.23;6.05;;;10.10;99.90;;;;;;5124644;27;20169;-71
2024/02/06 03:15:02;;;;;;;23.67;6.18;;;10.20;99.90;;;;;;5108908;27;20049;-71
2024/02/06 03:17:27;;;;;;;17.85;5.88;;;10.10;99.90;;;;;;5107560;27;20042;-71
2024/02/06 03:19:53;;;;;;;21.23;5.82;;;10.10;99.90;;;;;;5129846;27;20047;-71
2024/02/06 03:22:24;;;;;;;22.27;5.70;;;10.10;99.90;;;;;;5109347;27;20404;-72
2024/02/06 03:24:50;;;;;;;16.17;6.00;;;10.20;99.90;;;;;;5112211;27;20046;-71
2024/02/06 03:27:16;;;;;;;16.05;5.10;;;10.10;99.90;;;;;;5104208;27;20046;-71
2024/02/06 03:29:42;;;;;;;18.15;5.50;;;10.20;99.90;;;;;;5124587;27;20066;-71
2024/02/06 03:32:09;;;;;;;21.40;6.00;;;10.20;99.90;;;;;;5128639;27;20042;-71
2024/02/06 03:34:35;;;;;;;20.35;5.65;;;10.10;99.90;;;;;;5128698;27;20042;-71
2024/02/06 03:37:01;;;;;;;18.20;5.22;;;10.20;99.90;;;;;;5108164;27;20042;-72
2024/02/06 03:39:26;;;;;;;19.10;5.22;;;10.20;99.90;;;;;;5108001;27;20106;-72
2024/02/06 03:41:53;;;;;;;20.63;4.63;;;10.30;99.90;;;;;;5127532;27;20043;-71
2024/02/06 03:44:20;;;;;;;17.27;5.18;;;10.20;99.90;;;;;;5107494;27;20035;-72
2024/02/06 03:46:45;;;;;;;22.95;5.85;;;10.20;99.90;;;;;;5113510;27;20053;-71
2024/02/06 03:49:11;;;;;;;20.10;5.32;;;10.20;99.90;;;;;;5124806;27;20479;-71
2024/02/06 03:51:37;;;;;;;21.15;5.32;;;10.30;99.90;;;;;;5111675;27;20516;-71
2024/02/06 03:54:03;;;;;;;22.67;5.90;;;10.20;99.90;;;;;;5128351;27;20050;-71
2024/02/06 03:56:29;;;;;;;20.08;5.85;;;10.20;99.90;;;;;;5113117;27;20043;-71
2024/02/06 03:58:54;;;;;;;24.55;6.50;;;10.20;99.90;;;;;;5126240;27;20129;-71
2024/02/06 04:01:20;;;;;;;18.05;5.43;;;10.20;99.90;;;;;;5126894;27;20042;-71
2024/02/06 04:03:46;;;;;;;23.17;5.93;;;10.20;99.90;;;;;;5110894;27;20293;-72
2024/02/06 04:06:13;;;;;;;16.77;4.85;;;10.20;99.90;;;;;;5121569;27;20038;-71
2024/02/06 04:08:39;;;;;;;21.80;6.15;;;10.20;99.90;;;;;;5127390;27;20042;-71
2024/02/06 04:11:06;;;;;;;21.17;5.10;;;10.20;99.90;;;;;;5111463;27;20068;-70
2024/02/06 04:13:32;;;;;;;20.67;5.72;;;10.20;99.90;;;;;;5127811;27;20031;-71
2024/02/06 04:15:58;;;;;;;19.50;5.55;;;10.20;99.90;;;;;;5125717;27;20043;-71
2024/02/06 04:18:24;;;;;;;16.48;4.97;;;10.20;99.90;;;;;;5107914;27;20039;-71
2024/02/06 04:20:50;;;;;;;16.52;4.97;;;10.20;99.90;;;;;;5128908;27;20047;-71
2024/02/06 04:23:16;;;;;;;17.60;5.03;;;10.20;99.90;;;;;;5125940;27;20631;-70
2024/02/06 04:25:42;;;;;;;16.77;4.85;;;10.30;99.90;;;;;;5124540;27;20166;-70
2024/02/06 04:28:08;;;;;;;20.40;5.40;;;10.40;99.90;;;;;;5110232;27;20091;-71
2024/02/06 04:30:34;;;;;;;18.88;5.50;;;10.30;99.90;;;;;;5111897;27;20039;-71
2024/02/06 04:32:59;;;;;;;14.07;4.72;;;10.30;99.90;;;;;;5112775;27;20496;-71
2024/02/06 04:35:25;;;;;;;19.40;4.93;;;10.30;99.90;;;;;;5124594;27;20039;-74
2024/02/06 04:37:51;;;;;;;18.08;5.18;;;10.30;99.90;;;;;;5110414;27;20457;-74
2024/02/06 04:40:17;;;;;;;17.52;4.65;;;10.30;99.90;;;;;;5109704;27;20038;-74
2024/02/06 04:42:43;;;;;;;14.38;4.53;;;10.30;99.90;;;;;;5129299;27;20081;-75
2024/02/06 04:45:09;;;;;;;16.17;4.70;;;10.40;99.90;;;;;;5107182;27;20043;-75
2024/02/06 04:47:35;;;;;;;17.17;4.65;;;10.40;99.90;;;;;;5126106;27;20042;-74
2024/02/06 04:50:05;;;;;;;17.77;5.18;;;10.30;99.90;;;;;;5109912;27;20035;-74
2024/02/06 04:52:32;;;;;;;14.63;4.55;;;10.30;99.90;;;;;;5110027;27;20039;-75
2024/02/06 04:54:58;;;;;;;21.05;5.88;;;10.30;99.90;;;;;;5124796;27;20046;-75
2024/02/06 04:57:24;;;;;;;17.60;5.05;;;10.40;99.90;;;;;;5126441;27;20485;-74
2024/02/06 04:59:50;;;;;;;20.73;6.10;;;10.40;99.90;;;;;;5122006;27;20069;-74
2024/02/06 05:02:16;;;;;;;19.17;4.88;;;10.40;99.90;;;;;;5111553;27;20493;-75
2024/02/06 05:04:41;;;;;;;15.45;4.60;;;10.40;99.90;;;;;;5128352;27;20047;-76
2024/02/06 05:07:07;;;;;;;19.13;5.47;;;10.40;99.90;;;;;;5128575;27;20053;-75
2024/02/06 05:09:33;;;;;;;15.93;4.70;;;10.40;99.90;;;;;;5124631;27;20068;-76
2024/02/06 05:12:01;;;;;;;18.02;5.15;;;10.40;99.90;;;;;;5116590;27;20046;-76
2024/02/06 05:14:30;;;;;;;19.20;4.88;;;10.40;99.90;;;;;;5122446;27;20039;-76
2024/02/06 05:16:56;;;;;;;17.75;4.72;;;10.40;99.90;;;;;;5104523;27;20051;-76
2024/02/06 05:19:22;;;;;;;20.65;5.22;;;10.40;99.90;;;;;;5126982;27;20043;-76
2024/02/06 05:21:49;;;;;;;16.58;4.05;;;10.50;99.90;;;;;;5125201;27;20159;-75
2024/02/06 05:24:14;;;;;;;17.27;4.63;;;10.50;99.90;;;;;;5127143;27;20046;-75
2024/02/06 05:26:40;;;;;;;17.30;4.30;;;10.50;99.90;;;;;;5111060;27;20049;-76
2024/02/06 05:29:06;;;;;;;21.40;5.28;;;10.50;99.90;;;;;;5126711;27;20121;-76
2024/02/06 05:31:32;;;;;;;15.68;4.50;;;10.50;99.90;;;;;;5110812;27;20119;-75
2024/02/06 05:33:59;;;;;;;19.77;5.50;;;10.50;99.90;;;;;;5109731;27;20905;-75
2024/02/06 05:36:25;;;;;;;19.58;5.07;;;10.50;99.90;;;;;;5125976;27;20050;-76
2024/02/06 05:38:51;;;;;;;14.50;4.47;;;10.50;99.90;;;;;;5124468;27;20361;-75
2024/02/06 05:41:17;;;;;;;18.42;5.03;;;10.50;99.90;;;;;;5129406;27;20492;-76
2024/02/06 05:43:43;;;;;;;16.58;4.00;;;10.50;99.90;;;;;;5122339;27;20567;-75
2024/02/06 05:46:09;;;;;;;15.98;4.68;;;10.50;99.90;;;;;;5110287;27;20046;-75
2024/02/06 05:48:35;;;;;;;20.35;5.13;;;10.50;99.90;;;;;;5107336;27;20034;-76
2024/02/06 05:51:04;;;;;;;20.83;5.40;;;10.50;99.90;;;;;;5110595;27;20049;-76
2024/02/06 05:53:33;;;;;;;19.23;4.88;;;10.50;99.90;;;;;;5122572;27;20031;-76
2024/02/06 05:56:07;;;;;;;17.33;5.30;;;10.50;99.90;;;;;;5129129;27;20046;-76
2024/02/06 05:58:33;;;;;;;18.73;4.25;;;10.50;99.90;;;;;;5108135;27;20133;-77
2024/02/06 06:00:59;;;;;;;13.25;4.68;;;10.50;99.90;;;;;;5126805;27;20046;-76
2024/02/06 06:03:25;;;;;;;17.02;4.40;;;10.50;99.90;;;;;;5123469;27;20042;-76
2024/02/06 06:05:51;;;;;;;15.48;4.72;;;10.50;99.90;;;;;;5106349;27;20693;-77
2024/02/06 06:08:17;;;;;;;19.88;5.28;;;10.50;99.90;;;;;;5109759;27;20042;-76
2024/02/06 06:10:43;;;;;;;14.50;4.43;;;10.50;99.90;;;;;;5126088;27;20137;-76
2024/02/06 06:13:08;;;;;;;14.80;4.47;;;10.50;99.90;;;;;;5121783;27;21498;-76
2024/02/06 06:15:37;;;;;;;19.60;5.22;;;10.50;99.90;;;;;;5128228;27;20047;-76
2024/02/06 06:18:04;;;;;;;18.17;4.95;;;10.50;99.90;;;;;;5103329;27;20492;-76
2024/02/06 06:20:29;;;;;;;18.13;5.80;;;10.50;99.90;;;;;;5122666;27;20385;-76
2024/02/06 06:22:55;;;;;;;22.50;5.20;;;10.50;99.90;;;;;;5124428;27;20045;-76
2024/02/06 06:25:21;;;;;;;15.93;5.00;;;10.50;99.90;;;;;;5127516;27;20050;-76
2024/02/06 06:27:47;;;;;;;22.33;5.00;;;10.50;99.90;;;;;;5124458;27;20074;-78
2024/02/06 06:30:13;;;;;;;18.40;5.35;;;10.50;99.90;;;;;;5126815;27;20043;-75
2024/02/06 06:32:40;;;;;;;20.73;5.68;;;10.50;99.90;;;;;;5108995;27;20054;-75
2024/02/06 06:35:06;;;;;;;20.95;4.97;;;10.50;99.90;;;;;;5121452;27;20046;-71
2024/02/06 06:37:32;;;;;;;26.45;5.57;;;10.50;99.90;;;;;;5126241;27;20034;-72
2024/02/06 06:39:58;;;;;;;22.80;6.20;;;10.50;99.90;;;;;;5121572;27;20049;-71
2024/02/06 06:42:24;;;;;;;23.13;5.82;;;10.50;99.90;;;;;;5107594;27;20579;-71
2024/02/06 06:44:50;;;;;;;21.70;5.50;;;10.50;99.90;;;;;;5106018;27;20047;-72
2024/02/06 06:47:15;;;;;;;19.70;5.45;;;10.50;99.90;;;;;;5126596;27;20050;-71
2024/02/06 06:49:41;;;;;;;24.15;5.65;;;10.50;99.90;;;;;;5122619;27;20070;-71
2024/02/06 06:52:07;;;;;;;20.33;5.43;;;10.50;99.90;;;;;;5125817;27;20122;-76
2024/02/06 06:54:34;;;;;;;23.85;5.75;;;10.50;99.90;;;;;;5106520;27;20039;-76
2024/02/06 06:57:03;;;;;;;24.23;5.63;;;10.50;99.90;;;;;;5112058;27;20049;-76
2024/02/06 06:59:31;;;;;;;23.52;5.70;;;10.50;99.90;;;;;;5122013;27;20052;-76
2024/02/06 07:01:58;;;;;;;17.63;5.90;;;10.50;99.90;;;;;;5112048;27;20047;-76
2024/02/06 07:04:25;;;;;;;21.63;5.47;;;10.50;99.90;;;;;;5124816;27;20046;-75
2024/02/06 07:06:52;;;;;;;24.17;5.22;;;10.50;99.90;;;;;;5109841;27;20116;-74
2024/02/06 07:09:22;;;;;;;21.60;5.63;;;10.50;99.90;;;;;;5110203;27;20050;-76
2024/02/06 07:11:48;;;;;;;21.63;5.85;;;10.50;99.90;;;;;;5110204;27;20054;-76
2024/02/06 07:14:14;;;;;;;26.95;5.80;;;10.50;99.90;;;;;;5129802;27;20034;-76
2024/02/06 07:16:40;;;;;;;20.83;5.68;;;10.50;99.90;;;;;;5127770;27;20485;-75
2024/02/06 07:19:06;;;;;;;23.13;6.07;;;10.50;99.90;;;;;;5126581;27;20039;-78
2024/02/06 07:21:33;;;;;;;18.75;4.95;;;10.50;99.90;;;;;;5114056;27;20035;-75
2024/02/06 07:23:59;;;;;;;16.65;5.80;;;10.50;99.90;;;;;;5127169;27;20050;-76
2024/02/06 07:26:25;;;;;;;21.00;5.22;;;10.50;99.90;;;;;;5130165;27;20083;-76
2024/02/06 07:28:50;;;;;;;27.80;6.65;;;10.50;99.90;;;;;;5111940;27;20081;-76
2024/02/06 07:31:17;;;;;;;24.45;6.00;;;10.50;99.90;;;;;;5114687;27;20062;-76
2024/02/06 07:33:43;;;;;;;23.08;6.15;;;10.60;99.90;;;;;;5126051;27;20125;-76
2024/02/06 07:36:09;;;;;;;17.33;5.45;;;10.60;99.90;;;;;;5129383;27;20548;-76
2024/02/06 07:38:36;;;;;;;21.02;5.15;;;10.60;99.90;;;;;;5109132;27;20049;-76
2024/02/06 07:41:02;;;;;;;22.33;5.65;;;10.60;99.90;;;;;;5114585;27;20050;-77
2024/02/06 07:43:32;;;;;;;21.27;5.45;;;10.60;99.90;;;;;;5129455;27;20035;-76
2024/02/06 07:45:57;;;;;;;21.50;5.70;;;10.70;99.90;;;;;;5129381;27;20099;-77
2024/02/06 07:48:23;;;;;;;19.58;5.90;;;10.60;99.90;;;;;;5129781;27;20280;-76
2024/02/06 07:50:49;;;;;;;16.20;4.70;;;10.60;99.90;;;;;;5112945;27;20039;-76
2024/02/06 07:53:16;;;;;;;14.45;4.57;;;10.60;99.90;;;;;;5128152;27;20082;-76
2024/02/06 07:55:42;;;;;;;14.15;4.47;;;10.70;99.90;;;;;;5129853;27;20559;-76
2024/02/06 07:58:08;;;;;;;19.80;5.75;;;10.80;99.90;;;;;;5127055;27;20129;-75
2024/02/06 08:00:34;;;;;;;18.15;5.07;;;10.80;99.90;;;;;;5144459;27;20097;-76
2024/02/06 08:03:01;;;;;;;18.38;4.45;;;10.80;99.90;;;;;;5127153;27;20086;-77
2024/02/06 08:05:28;;;;;;;20.02;4.32;;;10.80;99.90;;;;;;5113119;27;20033;-78
2024/02/06 08:07:57;;;;;;;21.52;5.30;;;10.80;99.90;;;;;;5110875;27;20039;-77
2024/02/06 08:10:23;;;;;;;17.85;4.85;;;10.80;99.90;;;;;;5125591;27;20039;-77
2024/02/06 08:12:49;;;;;;;20.55;4.68;;;10.80;99.90;;;;;;5127550;27;20050;-77
2024/02/06 08:15:15;;;;;;;22.23;6.07;;;10.80;99.90;;;;;;5126225;27;20039;-77
2024/02/06 08:17:42;;;;;;;19.00;5.18;;;10.80;99.90;;;;;;5111637;27;20035;-75
2024/02/06 08:20:09;;;;;;;19.63;5.45;;;10.80;99.90;;;;;;5112293;27;20403;-75
2024/02/06 08:22:36;;;;;;;15.55;4.35;;;10.90;99.90;;;;;;5112483;27;20041;-76
2024/02/06 08:25:09;;;;;;;18.60;4.65;;;10.90;99.90;;;;;;5127661;27;20153;-76
2024/02/06 08:27:36;;;;;;;19.73;5.03;;;10.90;99.90;;;;;;5129382;27;20095;-76
2024/02/06 08:30:12;;;;;;;17.13;4.40;;;10.90;99.90;;;;;;5125369;27;20107;-75
2024/02/06 08:32:38;;;;;;;19.20;4.82;;;10.90;99.90;;;;;;5127413;27;20038;-76
2024/02/06 08:35:07;;;;;;;22.05;5.45;;;10.90;99.90;;;;;;5110694;27;20042;-77
2024/02/06 08:37:32;;;;;;;19.63;5.53;;;10.80;99.90;;;;;;5112029;27;20030;-76
2024/02/06 08:39:59;;;;;;;22.63;5.80;;;10.90;99.90;;;;;;5127702;27;20115;-75
2024/02/06 08:42:25;;;;;;;24.85;6.20;;;10.90;99.90;;;;;;5125545;27;20107;-75
2024/02/06 08:44:51;;;;;;;20.13;4.63;;;10.90;99.90;;;;;;5109816;27;20134;-77
2024/02/06 08:47:17;;;;;;;23.02;6.18;;;10.90;99.90;;;;;;5126214;27;20039;-76
2024/02/06 08:49:43;;;;;;;21.15;5.45;;;10.90;99.90;;;;;;5127627;27;20055;-76
2024/02/06 08:52:08;;;;;;;24.27;5.68;;;10.90;99.90;;;;;;5126409;27;20049;-76
2024/02/06 08:54:38;;;;;;;17.77;4.97;;;10.90;99.90;;;;;;5129352;27;20039;-77
2024/02/06 08:57:04;;;;;;;22.00;6.25;;;10.90;99.90;;;;;;5125649;27;20113;-76
2024/02/06 08:59:30;;;;;;;22.30;5.63;;;10.90;99.90;;;;;;5125838;27;20121;-76
2024/02/06 09:02:03;;;;;;;21.73;6.15;;;10.90;99.90;;;;;;5110821;27;20079;-76
2024/02/06 09:04:34;;;;;;;22.55;5.93;;;10.90;99.90;;;;;;5110406;27;20030;-75
2024/02/06 09:07:00;;;;;;;24.58;6.35;;;11.00;99.90;;;;;;5109395;27;20054;-76
2024/02/06 09:09:26;;;;;;;23.48;5.93;;;10.90;99.90;;;;;;5110247;27;20046;-76
2024/02/06 09:11:52;;;;;;;28.67;6.38;;;11.00;99.90;;;;;;5128691;27;20054;-77
2024/02/06 09:14:18;;;;;;;22.25;5.97;;;11.00;99.90;;;;;;5126146;27;20039;-77
2024/02/06 09:16:44;;;;;;;23.75;6.38;;;11.00;99.90;;;;;;5124459;27;20057;-78
2024/02/06 09:19:10;;;;;;;21.65;6.28;;;10.90;99.90;;;;;;5112632;27;20049;-75
2024/02/06 09:21:36;;;;;;;22.42;5.43;;;11.00;99.90;;;;;;5123624;27;20496;-76
2024/02/06 09:24:02;;;;;;;22.73;5.82;;;11.00;99.90;;;;;;5110927;27;20142;-74
2024/02/06 09:26:28;;;;;;;20.88;6.03;;;11.00;99.90;;;;;;5125667;27;20031;-76
2024/02/06 09:28:54;;;;;;;22.48;5.55;;;11.10;99.90;;;;;;5106105;27;20054;-76
2024/02/06 09:31:20;;;;;;;22.58;5.57;;;11.00;99.90;;;;;;5111638;27;20404;-75
2024/02/06 09:33:46;;;;;;;19.52;5.57;;;11.00;99.90;;;;;;5108932;27;20062;-75
2024/02/06 09:36:12;;;;;;;23.95;5.95;;;11.10;99.90;;;;;;5125387;27;20473;-75
2024/02/06 09:38:39;;;;;;;20.00;6.25;;;11.10;99.90;;;;;;5108553;27;20398;-75
2024/02/06 09:41:06;;;;;;;24.17;5.75;;;11.10;99.90;;;;;;5126140;27;20103;-76
2024/02/06 09:43:32;;;;;;;24.05;6.47;;;11.00;99.90;;;;;;5124388;27;20068;-75
2024/02/06 09:46:00;;;;;;;27.83;6.22;;;11.10;99.90;;;;;;5126568;27;20035;-75
2024/02/06 09:48:26;;;;;;;31.05;6.65;;;11.10;99.90;;;;;;5120904;27;20045;-75
2024/02/06 09:50:55;;;;;;;23.10;6.18;;;11.00;99.90;;;;;;5111249;27;20035;-75
2024/02/06 09:53:29;;;;;;;19.40;5.73;;;11.10;99.90;;;;;;5124795;27;20485;-75
2024/02/06 09:55:55;;;;;;;27.52;6.45;;;11.10;99.90;;;;;;5107969;27;20051;-75
2024/02/06 09:58:22;;;;;;;23.15;6.15;;;11.00;99.90;;;;;;5110293;27;20039;-75
2024/02/06 10:00:50;;;;;;;28.15;6.60;;;11.10;99.90;;;;;;5124530;27;20046;-75
2024/02/06 10:03:29;;;;;;;24.85;6.43;;;11.10;99.90;;;;;;5122994;27;20035;-75
2024/02/06 10:06:04;;;;;;;20.42;5.65;;;11.10;99.90;;;;;;5125071;27;20043;-75
2024/02/06 10:08:29;;;;;;;25.25;6.18;;;11.10;99.90;;;;;;5127538;27;20473;-75
2024/02/06 10:10:57;;;;;;;22.83;5.68;;;11.10;99.90;;;;;;5122045;27;20039;-75
2024/02/06 10:13:23;;;;;;;20.85;6.30;;;11.10;99.90;;;;;;5110783;27;20438;-77
2024/02/06 10:15:51;;;;;;;16.95;5.20;;;11.20;99.90;;;;;;5103652;27;20512;-77
2024/02/06 10:18:17;;;;;;;23.00;5.60;;;11.20;99.90;;;;;;5103549;27;20039;-76
2024/02/06 10:20:46;;;;;;;15.98;4.70;;;11.30;99.90;;;;;;5126899;27;20129;-77
2024/02/06 10:23:18;;;;;;;20.00;4.20;;;11.30;99.90;;;;;;5109131;27;20049;-76
2024/02/06 10:25:44;;;;;;;18.10;4.55;;;11.30;99.90;;;;;;5109821;27;20047;-76
2024/02/06 10:28:19;;;;;;;16.00;4.63;;;11.40;99.90;;;;;;5124376;27;20039;-76
2024/02/06 10:30:44;;;;;;;16.95;4.38;;;11.50;99.90;;;;;;5122613;27;20070;-75
2024/02/06 10:33:13;;;;;;;19.55;5.00;;;11.60;99.90;;;;;;5125992;27;20027;-75
2024/02/06 10:35:38;;;;;;;23.38;5.70;;;11.60;99.90;;;;;;5108891;27;20142;-75
2024/02/06 10:38:09;;;;;;;20.95;5.38;;;11.70;99.90;;;;;;5126409;27;20507;-75
2024/02/06 10:40:35;;;;;;;18.10;4.60;;;11.60;99.90;;;;;;5126229;27;20062;-79
2024/02/06 10:43:01;;;;;;;21.38;5.18;;;11.60;99.90;;;;;;5114817;27;20039;-76
2024/02/06 10:45:27;;;;;;;19.95;5.03;;;11.60;99.90;;;;;;5126018;27;20046;-76
2024/02/06 10:47:57;;;;;;;20.83;5.57;;;11.60;99.90;;;;;;5131243;27;20157;-75
2024/02/06 10:50:23;;;;;;;;;;;11.60;99.90;;;;;;5110381;27;20067;-75
2024/02/06 10:52:49;;;;;;;17.58;4.40;;;11.60;99.90;;;;;;5111890;27;19931;-74
2024/02/06 10:55:15;;;;;;;18.25;4.75;;;11.60;99.90;;;;;;5125773;27;20116;-75
2024/02/06 10:57:44;;;;;;;18.67;4.35;;;11.60;99.90;;;;;;5131363;27;20027;-75
2024/02/06 11:00:20;;;;;;;18.25;4.35;;;11.60;99.90;;;;;;5125441;27;20039;-74
2024/02/06 11:02:51;;;;;;;14.30;4.35;;;11.60;99.90;;;;;;5132895;27;20110;-75
2024/02/06 11:05:37;;;;;;;19.30;5.15;;;11.70;99.90;;;;;;5113901;27;20074;-76
2024/02/06 11:08:09;;;;;;;21.17;4.43;;;11.70;99.90;;;;;;5129195;27;20057;-74
2024/02/06 11:10:47;;;;;;;18.40;5.03;;;11.80;99.90;;;;;;5126527;27;20091;-76
2024/02/06 11:13:36;;;;;;;20.35;4.80;;;11.70;99.90;;;;;;5127384;27;20107;-75
2024/02/06 11:16:03;;;;;;;21.95;4.95;;;11.80;99.90;;;;;;5108133;27;20042;-77
2024/02/06 11:18:41;;;;;;;16.13;4.20;;;11.80;99.90;;;;;;5125598;27;20043;-75
2024/02/06 11:21:10;;;;;;;15.65;3.90;;;11.80;99.90;;;;;;5112904;27;20039;-79
2024/02/06 11:23:37;;;;;;;17.05;4.28;;;11.80;99.90;;;;;;5108326;27;20047;-74
2024/02/06 11:26:05;;;;;;;20.52;5.20;;;11.80;99.90;;;;;;5112889;27;20274;-77
2024/02/06 11:28:31;;;;;;;19.45;4.72;;;11.80;99.90;;;;;;5124980;27;20030;-76
2024/02/06 11:31:03;;;;;;;19.42;4.47;;;11.80;99.90;;;;;;5113489;27;20036;-76
2024/02/06 11:33:35;;;;;;;15.77;4.13;;;11.80;99.90;;;;;;5129244;27;20099;-76
2024/02/06 11:36:20;;;;;;;14.95;4.70;;;11.80;99.90;;;;;;5127585;27;20064;-76
2024/02/06 11:38:46;;;;;;;18.73;4.22;;;11.80;99.90;;;;;;5125565;27;20058;-77
2024/02/06 11:41:14;;;;;;;15.02;4.07;;;11.80;99.90;;;;;;5110791;27;20046;-76
2024/02/06 11:43:40;;;;;;;20.25;4.55;;;11.90;99.90;;;;;;5127055;27;20035;-76
2024/02/06 11:46:06;;;;;;;15.52;4.57;;;11.90;99.90;;;;;;5127822;27;20412;-76
2024/02/06 11:48:32;;;;;;;17.88;3.90;;;11.90;99.90;;;;;;5107019;27;20038;-75
2024/02/06 11:50:58;;;;;;;18.42;4.60;;;11.90;99.90;;;;;;5129400;27;20031;-76
2024/02/06 11:53:28;;;;;;;15.77;3.78;;;11.90;99.90;;;;;;5111400;27;20043;-76
2024/02/06 11:55:57;;;;;;;16.55;3.92;;;11.90;99.90;;;;;;5122471;27;20065;-75
2024/02/06 11:58:27;;;;;;;18.20;4.38;;;11.90;99.90;;;;;;5127892;27;20075;-75
2024/02/06 12:00:58;;;;;;;22.92;5.40;;;11.90;99.90;;;;;;5129463;27;20146;-74
2024/02/06 12:03:24;;;;;;;12.90;3.97;;;12.00;99.90;;;;;;5126081;27;20145;-75
2024/02/06 12:05:50;;;;;;;15.45;4.35;;;11.90;99.90;;;;;;5126715;27;20078;-75
2024/02/06 12:08:21;;;;;;;13.82;4.32;;;12.00;99.90;;;;;;5110554;27;20035;-75
2024/02/06 12:10:47;;;;;;;15.75;4.38;;;12.00;99.90;;;;;;5124695;27;20417;-76
2024/02/06 12:13:14;;;;;;;13.02;4.00;;;12.10;99.90;;;;;;5113673;27;20046;-75
2024/02/06 12:15:41;;;;;;;20.95;4.85;;;12.00;99.90;;;;;;5128018;27;20039;-75
2024/02/06 12:18:10;;;;;;;17.15;3.97;;;12.00;99.90;;;;;;5105430;27;20047;-75
2024/02/06 12:20:36;;;;;;;17.52;5.10;;;12.00;99.90;;;;;;5109622;27;20042;-75
2024/02/06 12:23:07;;;;;;;13.80;4.13;;;12.00;99.90;;;;;;5111610;27;20043;-77
2024/02/06 12:25:38;;;;;;;15.35;4.60;;;12.00;99.90;;;;;;5112413;27;20091;-77
2024/02/06 12:28:12;;;;;;;18.17;4.45;;;12.10;99.90;;;;;;5128372;27;20523;-75
2024/02/06 12:30:44;;;;;;;17.08;4.53;;;12.10;99.90;;;;;;5123463;27;20048;-75
2024/02/06 12:33:10;;;;;;;15.18;4.78;;;12.10;99.90;;;;;;5126917;27;20043;-75
2024/02/06 12:35:38;;;;;;;13.57;4.10;;;12.10;99.90;;;;;;5126992;27;20039;-76
2024/02/06 12:38:04;;;;;;;18.77;4.05;;;12.10;99.90;;;;;;5129868;27;20202;-76